createdAt,value
2023-01-13T00:00:48.225Z,0.30
2023-01-13T00:05:39.821Z,0.40
2023-01-13T00:10:31.366Z,0.30
2023-01-13T00:15:22.929Z,0.20
2023-01-13T00:20:14.953Z,0.40
2023-01-13T00:25:07.050Z,0.20
2023-01-13T00:29:59.182Z,0.30
2023-01-13T00:34:50.821Z,0.23
2023-01-13T00:39:42.572Z,0.33
2023-01-13T00:44:34.140Z,0.40
2023-01-13T00:49:25.732Z,0.30
2023-01-13T00:54:17.319Z,0.30
2023-01-13T00:59:12.846Z,0.20
2023-01-13T01:04:04.641Z,0.30
2023-01-13T01:08:56.721Z,0.47
2023-01-13T01:13:49.209Z,0.40
2023-01-13T01:18:42.940Z,0.30
2023-01-13T01:23:36.511Z,0.27
2023-01-13T01:28:28.307Z,0.30
2023-01-13T01:33:19.848Z,0.40
2023-01-13T01:38:11.866Z,0.60
2023-01-13T01:43:32.766Z,0.60
2023-01-13T01:48:25.076Z,0.43
2023-01-13T01:53:19.593Z,0.50
2023-01-13T01:58:21.847Z,0.33
2023-01-13T02:03:15.158Z,0.67
2023-01-13T02:08:08.406Z,0.60
2023-01-13T02:13:04.759Z,0.47
2023-01-13T02:18:11.267Z,0.40
2023-01-13T02:23:05.562Z,0.50
2023-01-13T02:28:12.225Z,0.60
2023-01-13T02:33:39.192Z,0.70
2023-01-13T02:38:39.501Z,0.50
2023-01-13T02:43:57.372Z,0.50
2023-01-13T02:48:52.778Z,0.60
2023-01-13T02:53:58.407Z,0.60
2023-01-13T02:58:50.940Z,0.40
2023-01-13T03:03:43.906Z,0.80
2023-01-13T03:08:48.715Z,1.03
2023-01-13T03:14:16.949Z,0.57
2023-01-13T03:19:21.631Z,1.00
2023-01-13T03:24:20.023Z,0.80
2023-01-13T03:29:17.329Z,0.87
2023-01-13T03:34:15.851Z,0.50
2023-01-13T03:39:16.368Z,0.80
2023-01-13T03:44:23.759Z,1.20
2023-01-13T03:49:20.507Z,1.30
2023-01-13T03:54:13.962Z,1.20
2023-01-13T03:59:11.686Z,1.70
2023-01-13T04:04:08.224Z,1.70
2023-01-13T04:09:11.857Z,1.83
2023-01-13T04:14:06.277Z,1.67
2023-01-13T04:18:57.860Z,1.70
2023-01-13T04:23:51.423Z,1.77
2023-01-13T04:28:43.076Z,1.73
2023-01-13T04:33:34.665Z,1.73
2023-01-13T04:38:26.382Z,1.40
2023-01-13T04:43:18.025Z,2.00
2023-01-13T04:48:09.786Z,1.63
2023-01-13T04:53:01.596Z,2.17
2023-01-13T04:57:53.329Z,2.30
2023-01-13T05:02:44.898Z,2.30
2023-01-13T05:07:36.869Z,1.73
2023-01-13T05:12:47.181Z,1.90
2023-01-13T05:17:39.640Z,2.20
2023-01-13T05:22:49.657Z,2.23
2023-01-13T05:27:41.349Z,2.10
2023-01-13T05:32:33.203Z,1.73
2023-01-13T05:37:25.873Z,1.83
2023-01-13T05:42:36.088Z,2.10
2023-01-13T05:47:28.500Z,1.60
2023-01-13T05:52:20.107Z,1.43
2023-01-13T05:57:11.691Z,1.30
2023-01-13T06:02:03.218Z,1.30
2023-01-13T06:06:55.930Z,1.40
2023-01-13T06:11:47.590Z,1.10
2023-01-13T06:16:39.335Z,1.43
2023-01-13T06:21:33.005Z,1.03
2023-01-13T06:26:25.161Z,1.20
2023-01-13T06:31:16.911Z,1.40
2023-01-13T06:36:22.137Z,1.23
2023-01-13T06:41:14.111Z,1.33
2023-01-13T06:46:05.978Z,1.20
2023-01-13T06:50:57.505Z,1.20
2023-01-13T06:55:49.160Z,1.10
2023-01-13T07:00:41.128Z,1.60
2023-01-13T07:05:32.747Z,1.00
2023-01-13T07:10:24.324Z,0.93
2023-01-13T07:15:18.695Z,1.57
2023-01-13T07:20:10.802Z,0.87
2023-01-13T07:25:02.361Z,1.10
2023-01-13T07:29:53.978Z,0.90
2023-01-13T07:34:45.529Z,0.70
2023-01-13T07:39:37.147Z,0.83
2023-01-13T07:44:28.729Z,0.80
2023-01-13T07:49:20.292Z,0.90
2023-01-13T07:54:11.943Z,1.23
2023-01-13T07:59:03.838Z,1.00
2023-01-13T08:03:56.326Z,0.60
2023-01-13T08:08:47.938Z,0.80
2023-01-13T08:13:39.678Z,0.93
2023-01-13T08:18:32.338Z,0.90
2023-01-13T08:23:23.944Z,1.40
2023-01-13T08:28:16.516Z,1.40
2023-01-13T08:33:09.881Z,0.97
2023-01-13T08:38:01.440Z,1.50
2023-01-13T08:42:55.518Z,1.53
2023-01-13T08:47:47.126Z,1.30
2023-01-13T08:52:38.735Z,1.30
2023-01-13T08:57:30.393Z,1.60
2023-01-13T09:02:23.568Z,1.93
2023-01-13T09:07:15.605Z,1.87
2023-01-13T09:12:29.500Z,2.20
2023-01-13T09:17:21.136Z,2.20
2023-01-13T09:22:18.535Z,1.97
2023-01-13T09:27:15.257Z,2.10
2023-01-13T09:32:07.227Z,1.80
2023-01-13T09:36:59.108Z,1.83
2023-01-13T09:42:13.312Z,1.80
2023-01-13T09:47:14.456Z,2.53
2023-01-13T09:52:27.072Z,1.87
2023-01-13T09:57:20.850Z,1.80
2023-01-13T10:02:24.294Z,2.20
2023-01-13T10:07:15.975Z,2.50
2023-01-13T10:12:35.912Z,2.10
2023-01-13T10:17:38.315Z,2.20
2023-01-13T10:22:44.693Z,2.10
2023-01-13T10:27:40.730Z,2.30
2023-01-13T10:32:32.614Z,1.97
2023-01-13T10:37:27.121Z,2.30
2023-01-13T10:42:22.814Z,2.20
2023-01-13T10:47:25.154Z,2.00
2023-01-13T10:52:29.505Z,2.07
2023-01-13T10:57:23.632Z,2.10
2023-01-13T11:02:25.959Z,2.13
2023-01-13T11:07:26.815Z,2.40
2023-01-13T11:12:32.439Z,2.23
2023-01-13T11:18:00.714Z,2.70
2023-01-13T11:22:55.673Z,2.17
2023-01-13T11:28:00.685Z,2.03
2023-01-13T11:33:04.902Z,2.50
2023-01-13T11:38:06.523Z,2.33
2023-01-13T11:43:17.905Z,2.27
2023-01-13T11:48:20.811Z,2.40
2023-01-13T11:54:05.006Z,2.13
2023-01-13T11:59:31.196Z,1.73
2023-01-13T12:04:22.712Z,2.10
2023-01-13T12:09:36.916Z,1.87
2023-01-13T12:14:58.674Z,2.07
2023-01-13T12:32:36.557Z,2.20
2023-01-13T12:37:43.038Z,1.70
2023-01-13T12:43:12.297Z,1.80
2023-01-13T12:48:05.116Z,1.50
2023-01-13T12:52:59.261Z,2.90
2023-01-13T12:58:06.125Z,2.10
2023-01-13T13:03:13.805Z,2.57
2023-01-13T13:08:14.603Z,3.23
2023-01-13T13:13:20.267Z,3.53
2023-01-13T13:18:18.038Z,3.33
2023-01-13T13:23:27.247Z,3.13
2023-01-13T13:28:21.839Z,3.17
2023-01-13T13:33:41.477Z,3.03
2023-01-13T13:39:06.809Z,2.97
2023-01-13T13:44:29.947Z,2.10
2023-01-13T13:49:34.799Z,2.80
2023-01-13T13:54:27.182Z,1.97
2023-01-13T13:59:24.803Z,3.53
2023-01-13T14:04:27.437Z,2.37
2023-01-13T14:09:20.140Z,2.33
2023-01-13T14:14:17.240Z,1.90
2023-01-13T14:19:44.138Z,3.53
2023-01-13T14:24:46.509Z,2.33
2023-01-13T14:29:38.289Z,1.90
2023-01-13T14:34:31.512Z,1.90
2023-01-13T14:39:33.416Z,2.13
2023-01-13T14:44:27.930Z,1.80
2023-01-13T14:49:35.995Z,2.40
2023-01-13T14:55:11.272Z,2.03
2023-01-13T15:00:21.296Z,1.83
2023-01-13T15:05:18.933Z,2.60
2023-01-13T15:10:18.032Z,2.37
2023-01-13T15:15:30.146Z,2.33
2023-01-13T15:20:23.794Z,2.60
2023-01-13T15:25:15.893Z,2.17
2023-01-13T15:30:22.312Z,2.57
2023-01-13T15:35:15.748Z,2.20
2023-01-13T15:40:20.193Z,2.43
2023-01-13T15:45:33.494Z,2.57
2023-01-13T15:50:25.444Z,2.83
2023-01-13T15:55:17.019Z,2.30
2023-01-13T16:00:16.220Z,2.50
2023-01-13T16:05:08.121Z,2.63
2023-01-13T16:10:01.758Z,2.77
2023-01-13T16:14:53.382Z,2.80
2023-01-13T16:19:45.461Z,2.70
2023-01-13T16:24:37.725Z,2.87
2023-01-13T16:29:29.395Z,2.57
2023-01-13T16:34:21.017Z,3.00
2023-01-13T16:39:22.557Z,2.37
2023-01-13T16:44:14.316Z,2.30
2023-01-13T16:49:06.611Z,2.63
2023-01-13T16:53:58.236Z,2.87
2023-01-13T16:58:51.343Z,2.43
2023-01-13T17:03:44.373Z,2.17
2023-01-13T17:08:36.043Z,2.60
2023-01-13T17:13:27.767Z,2.47
2023-01-13T17:18:19.372Z,1.73
2023-01-13T17:23:11.029Z,2.40
2023-01-13T17:28:02.830Z,2.40
2023-01-13T17:32:54.397Z,2.10
2023-01-13T17:37:46.833Z,2.37
2023-01-13T17:42:38.464Z,2.20
2023-01-13T17:47:30.004Z,2.47
2023-01-13T17:52:21.627Z,2.60
2023-01-13T17:57:13.306Z,2.70
2023-01-13T18:02:05.178Z,2.50
2023-01-13T18:06:57.134Z,2.43
2023-01-13T18:11:49.009Z,3.03
2023-01-13T18:16:40.780Z,2.70
2023-01-13T18:21:51.289Z,2.67
2023-01-13T18:27:01.698Z,2.67
2023-01-13T18:31:53.378Z,2.37
2023-01-13T18:36:45.072Z,2.70
2023-01-13T18:41:55.433Z,2.53
2023-01-13T18:46:47.095Z,2.60
2023-01-13T18:51:39.601Z,2.83
2023-01-13T18:56:31.280Z,2.83
2023-01-13T19:01:26.028Z,2.63
2023-01-13T19:06:17.694Z,2.53
2023-01-13T19:11:09.511Z,2.67
2023-01-13T19:16:06.295Z,2.97
2023-01-13T19:21:03.174Z,3.03
2023-01-13T19:25:54.888Z,2.70
2023-01-13T19:30:46.555Z,2.80
2023-01-13T19:35:38.373Z,3.10
2023-01-13T19:40:30.061Z,3.20
2023-01-13T19:45:27.888Z,2.67
2023-01-13T19:50:19.939Z,2.97
2023-01-13T19:55:12.477Z,3.17
2023-01-13T20:00:05.746Z,2.33
2023-01-13T20:05:07.580Z,2.93
2023-01-13T20:09:59.571Z,2.50
2023-01-13T20:14:51.678Z,2.47
2023-01-13T20:19:43.507Z,2.90
2023-01-13T20:24:35.675Z,2.73
2023-01-13T20:29:28.495Z,2.70
2023-01-13T20:34:21.099Z,2.40
2023-01-13T20:39:18.202Z,3.00
2023-01-13T20:44:11.605Z,2.60
2023-01-13T20:49:03.553Z,2.70
2023-01-13T20:53:56.740Z,3.47
2023-01-13T20:58:48.368Z,3.10
2023-01-13T21:03:40.252Z,3.00
2023-01-13T21:08:32.393Z,3.57
2023-01-13T21:13:42.512Z,3.30
2023-01-13T21:18:53.091Z,3.20
2023-01-13T21:23:47.516Z,3.00
2023-01-13T21:28:39.218Z,3.23
2023-01-13T21:33:31.032Z,3.10
2023-01-13T21:38:23.078Z,3.47
2023-01-13T21:43:33.288Z,3.67
2023-01-13T21:48:24.940Z,3.30
2023-01-13T21:53:16.589Z,3.10
2023-01-13T21:58:11.549Z,3.37
2023-01-13T22:03:04.908Z,3.60
2023-01-13T22:07:56.631Z,3.10
2023-01-13T22:12:49.006Z,3.40
2023-01-13T22:17:42.212Z,3.13
2023-01-13T22:22:36.647Z,3.53
2023-01-13T22:27:30.574Z,3.47
2023-01-13T22:32:22.544Z,2.93
2023-01-13T22:37:14.158Z,3.63
2023-01-13T22:42:06.516Z,5.57
2023-01-13T22:46:58.097Z,6.30
2023-01-13T22:51:49.698Z,4.23
2023-01-13T22:56:41.360Z,4.50
2023-01-13T23:01:36.191Z,5.90
2023-01-13T23:06:29.768Z,4.80
2023-01-13T23:11:24.569Z,3.70
2023-01-13T23:16:23.725Z,4.40
